Terminal Aerodrome Forecast
Issued by NWS

Home | Current Version | Previous Version | Graphics & Text | Print | Product List | Glossary On
Versions: 1 2 3 4 5 6 7 8 9 10 11 12 13 14 15 16
000
FTUS43 KGRB 251735
TAFCWA
TAF
KCWA 251735Z 2518/2618 20010G16KT P6SM OVC014
     FM252200 32007KT P6SM SCT014 OVC028
     FM260100 31004KT P6SM OVC026
     FM261400 34004KT P6SM SCT025=

USA.gov is the U.S. government's official web portal to all federal, state and local government web resources and services.